sensor_id;sensor_type;location;lat;lon;timestamp;P1;durP1;ratioP1;P2;durP2;ratioP2
66429;SDS011;53242;51.694;10.006;2024-03-25T00:00:16;0.52;;;0.20;;
66429;SDS011;53242;51.694;10.006;2024-03-25T00:02:38;2.30;;;0.30;;
66429;SDS011;53242;51.694;10.006;2024-03-25T00:05:01;2.08;;;0.50;;
66429;SDS011;53242;51.694;10.006;2024-03-25T00:07:24;0.57;;;0.30;;
66429;SDS011;53242;51.694;10.006;2024-03-25T00:09:46;0.88;;;0.20;;
66429;SDS011;53242;51.694;10.006;2024-03-25T00:12:09;0.30;;;0.30;;
66429;SDS011;53242;51.694;10.006;2024-03-25T00:14:31;3.30;;;0.40;;
66429;SDS011;53242;51.694;10.006;2024-03-25T00:16:54;0.35;;;0.20;;
66429;SDS011;53242;51.694;10.006;2024-03-25T00:19:16;1.45;;;0.43;;
66429;SDS011;53242;51.694;10.006;2024-03-25T00:21:38;1.15;;;0.52;;
66429;SDS011;53242;51.694;10.006;2024-03-25T00:24:01;0.95;;;0.47;;
66429;SDS011;53242;51.694;10.006;2024-03-25T00:26:23;1.83;;;0.47;;
66429;SDS011;53242;51.694;10.006;2024-03-25T00:28:46;3.53;;;0.60;;
66429;SDS011;53242;51.694;10.006;2024-03-25T00:31:08;2.08;;;0.70;;
66429;SDS011;53242;51.694;10.006;2024-03-25T00:33:30;2.47;;;0.70;;
66429;SDS011;53242;51.694;10.006;2024-03-25T00:35:54;1.75;;;0.70;;
66429;SDS011;53242;51.694;10.006;2024-03-25T00:38:16;3.22;;;0.70;;
66429;SDS011;53242;51.694;10.006;2024-03-25T00:40:39;1.85;;;0.70;;
66429;SDS011;53242;51.694;10.006;2024-03-25T00:43:01;7.93;;;0.70;;
66429;SDS011;53242;51.694;10.006;2024-03-25T00:45:24;4.68;;;1.10;;
66429;SDS011;53242;51.694;10.006;2024-03-25T00:47:52;4.45;;;1.13;;
66429;SDS011;53242;51.694;10.006;2024-03-25T00:50:14;0.95;;;0.55;;
66429;SDS011;53242;51.694;10.006;2024-03-25T00:52:37;3.00;;;0.93;;
66429;SDS011;53242;51.694;10.006;2024-03-25T00:54:59;2.72;;;0.98;;
66429;SDS011;53242;51.694;10.006;2024-03-25T00:57:22;3.80;;;1.08;;
66429;SDS011;53242;51.694;10.006;2024-03-25T00:59:44;3.85;;;1.30;;
66429;SDS011;53242;51.694;10.006;2024-03-25T01:02:07;4.38;;;0.63;;
66429;SDS011;53242;51.694;10.006;2024-03-25T01:04:30;4.13;;;0.57;;
66429;SDS011;53242;51.694;10.006;2024-03-25T01:06:52;2.72;;;0.50;;
66429;SDS011;53242;51.694;10.006;2024-03-25T01:09:15;1.83;;;0.52;;
66429;SDS011;53242;51.694;10.006;2024-03-25T01:11:38;1.67;;;0.50;;
66429;SDS011;53242;51.694;10.006;2024-03-25T01:14:00;3.42;;;1.10;;
66429;SDS011;53242;51.694;10.006;2024-03-25T01:16:22;1.42;;;0.55;;
66429;SDS011;53242;51.694;10.006;2024-03-25T01:18:45;1.60;;;0.50;;
66429;SDS011;53242;51.694;10.006;2024-03-25T01:21:07;3.50;;;0.47;;
66429;SDS011;53242;51.694;10.006;2024-03-25T01:23:30;1.83;;;0.60;;
66429;SDS011;53242;51.694;10.006;2024-03-25T01:25:52;2.78;;;0.90;;
66429;SDS011;53242;51.694;10.006;2024-03-25T01:28:15;3.70;;;0.60;;
66429;SDS011;53242;51.694;10.006;2024-03-25T01:30:37;1.83;;;0.55;;
66429;SDS011;53242;51.694;10.006;2024-03-25T01:33:01;1.23;;;0.40;;
66429;SDS011;53242;51.694;10.006;2024-03-25T01:35:24;1.58;;;0.38;;
66429;SDS011;53242;51.694;10.006;2024-03-25T01:37:47;0.65;;;0.40;;
66429;SDS011;53242;51.694;10.006;2024-03-25T01:40:11;2.65;;;0.65;;
66429;SDS011;53242;51.694;10.006;2024-03-25T01:42:33;0.43;;;0.38;;
66429;SDS011;53242;51.694;10.006;2024-03-25T01:44:56;1.05;;;0.43;;
66429;SDS011;53242;51.694;10.006;2024-03-25T01:47:18;1.75;;;0.65;;
66429;SDS011;53242;51.694;10.006;2024-03-25T01:49:40;1.40;;;0.57;;
66429;SDS011;53242;51.694;10.006;2024-03-25T01:52:03;0.80;;;0.40;;
66429;SDS011;53242;51.694;10.006;2024-03-25T01:54:25;1.20;;;0.40;;
66429;SDS011;53242;51.694;10.006;2024-03-25T01:56:49;2.22;;;0.52;;
66429;SDS011;53242;51.694;10.006;2024-03-25T01:59:12;1.05;;;0.60;;
66429;SDS011;53242;51.694;10.006;2024-03-25T02:01:37;0.93;;;0.52;;
66429;SDS011;53242;51.694;10.006;2024-03-25T02:04:00;3.47;;;0.70;;
66429;SDS011;53242;51.694;10.006;2024-03-25T02:06:22;1.80;;;0.60;;
66429;SDS011;53242;51.694;10.006;2024-03-25T02:08:48;3.10;;;1.10;;
66429;SDS011;53242;51.694;10.006;2024-03-25T02:11:11;2.15;;;0.82;;
66429;SDS011;53242;51.694;10.006;2024-03-25T02:13:37;0.68;;;0.35;;
66429;SDS011;53242;51.694;10.006;2024-03-25T02:15:59;3.30;;;0.90;;
66429;SDS011;53242;51.694;10.006;2024-03-25T02:18:22;2.53;;;0.75;;
66429;SDS011;53242;51.694;10.006;2024-03-25T02:20:45;4.63;;;0.77;;
66429;SDS011;53242;51.694;10.006;2024-03-25T02:23:08;4.85;;;1.65;;
66429;SDS011;53242;51.694;10.006;2024-03-25T02:25:32;2.42;;;0.80;;
66429;SDS011;53242;51.694;10.006;2024-03-25T02:27:55;6.07;;;1.38;;
66429;SDS011;53242;51.694;10.006;2024-03-25T02:30:17;5.20;;;1.30;;
66429;SDS011;53242;51.694;10.006;2024-03-25T02:32:40;5.45;;;1.20;;
66429;SDS011;53242;51.694;10.006;2024-03-25T02:35:03;4.45;;;1.00;;
66429;SDS011;53242;51.694;10.006;2024-03-25T02:37:27;4.30;;;1.25;;
66429;SDS011;53242;51.694;10.006;2024-03-25T02:39:50;4.22;;;1.10;;
66429;SDS011;53242;51.694;10.006;2024-03-25T02:42:13;3.55;;;0.90;;
66429;SDS011;53242;51.694;10.006;2024-03-25T02:44:35;2.00;;;0.75;;
66429;SDS011;53242;51.694;10.006;2024-03-25T02:46:58;2.67;;;0.73;;
66429;SDS011;53242;51.694;10.006;2024-03-25T02:49:20;2.55;;;0.93;;
66429;SDS011;53242;51.694;10.006;2024-03-25T02:51:43;2.63;;;0.88;;
66429;SDS011;53242;51.694;10.006;2024-03-25T02:54:05;2.03;;;0.68;;
66429;SDS011;53242;51.694;10.006;2024-03-25T02:56:27;3.47;;;0.70;;
66429;SDS011;53242;51.694;10.006;2024-03-25T02:58:50;3.65;;;0.75;;
66429;SDS011;53242;51.694;10.006;2024-03-25T03:01:12;2.33;;;0.63;;
66429;SDS011;53242;51.694;10.006;2024-03-25T03:03:35;5.43;;;1.02;;
66429;SDS011;53242;51.694;10.006;2024-03-25T03:05:57;2.55;;;1.00;;
66429;SDS011;53242;51.694;10.006;2024-03-25T03:08:19;5.47;;;0.93;;
66429;SDS011;53242;51.694;10.006;2024-03-25T03:10:42;4.22;;;1.02;;
66429;SDS011;53242;51.694;10.006;2024-03-25T03:13:04;4.30;;;1.30;;
66429;SDS011;53242;51.694;10.006;2024-03-25T03:15:27;4.75;;;1.08;;
66429;SDS011;53242;51.694;10.006;2024-03-25T03:17:49;3.50;;;1.20;;
66429;SDS011;53242;51.694;10.006;2024-03-25T03:20:11;5.18;;;1.10;;
66429;SDS011;53242;51.694;10.006;2024-03-25T03:22:35;4.00;;;1.20;;
66429;SDS011;53242;51.694;10.006;2024-03-25T03:24:57;3.38;;;1.20;;
66429;SDS011;53242;51.694;10.006;2024-03-25T03:27:20;6.05;;;2.05;;
66429;SDS011;53242;51.694;10.006;2024-03-25T03:29:42;5.03;;;1.70;;
66429;SDS011;53242;51.694;10.006;2024-03-25T03:32:04;5.05;;;1.40;;
66429;SDS011;53242;51.694;10.006;2024-03-25T03:34:27;4.82;;;1.30;;
66429;SDS011;53242;51.694;10.006;2024-03-25T03:36:49;6.35;;;1.60;;
66429;SDS011;53242;51.694;10.006;2024-03-25T03:39:14;7.32;;;1.58;;
66429;SDS011;53242;51.694;10.006;2024-03-25T03:41:37;7.85;;;1.55;;
66429;SDS011;53242;51.694;10.006;2024-03-25T03:44:00;8.77;;;2.10;;
66429;SDS011;53242;51.694;10.006;2024-03-25T03:46:22;8.45;;;1.42;;
66429;SDS011;53242;51.694;10.006;2024-03-25T03:48:44;8.00;;;1.70;;
66429;SDS011;53242;51.694;10.006;2024-03-25T03:51:07;8.50;;;1.60;;
66429;SDS011;53242;51.694;10.006;2024-03-25T03:53:31;5.28;;;1.38;;
66429;SDS011;53242;51.694;10.006;2024-03-25T03:55:57;7.88;;;1.70;;
66429;SDS011;53242;51.694;10.006;2024-03-25T03:58:22;5.22;;;1.17;;
66429;SDS011;53242;51.694;10.006;2024-03-25T04:00:44;3.72;;;1.63;;
66429;SDS011;53242;51.694;10.006;2024-03-25T04:03:07;6.13;;;1.67;;
66429;SDS011;53242;51.694;10.006;2024-03-25T04:05:31;7.35;;;1.63;;
66429;SDS011;53242;51.694;10.006;2024-03-25T04:07:53;7.55;;;1.35;;
66429;SDS011;53242;51.694;10.006;2024-03-25T04:10:16;4.57;;;1.55;;
66429;SDS011;53242;51.694;10.006;2024-03-25T04:12:41;10.10;;;1.77;;
66429;SDS011;53242;51.694;10.006;2024-03-25T04:15:03;6.40;;;1.48;;
66429;SDS011;53242;51.694;10.006;2024-03-25T04:17:26;5.22;;;1.33;;
66429;SDS011;53242;51.694;10.006;2024-03-25T04:19:49;6.45;;;1.45;;
66429;SDS011;53242;51.694;10.006;2024-03-25T04:22:12;6.80;;;1.50;;
66429;SDS011;53242;51.694;10.006;2024-03-25T04:24:34;5.70;;;1.55;;
66429;SDS011;53242;51.694;10.006;2024-03-25T04:26:56;5.38;;;1.55;;
66429;SDS011;53242;51.694;10.006;2024-03-25T04:29:19;6.85;;;1.70;;
66429;SDS011;53242;51.694;10.006;2024-03-25T04:31:41;7.72;;;1.95;;
66429;SDS011;53242;51.694;10.006;2024-03-25T04:34:04;6.63;;;1.80;;
66429;SDS011;53242;51.694;10.006;2024-03-25T04:36:29;4.93;;;1.25;;
66429;SDS011;53242;51.694;10.006;2024-03-25T04:38:51;9.02;;;1.70;;
66429;SDS011;53242;51.694;10.006;2024-03-25T04:41:13;7.72;;;1.48;;
66429;SDS011;53242;51.694;10.006;2024-03-25T04:43:36;5.38;;;1.48;;
66429;SDS011;53242;51.694;10.006;2024-03-25T04:46:01;8.00;;;1.30;;
66429;SDS011;53242;51.694;10.006;2024-03-25T04:48:23;6.72;;;1.70;;
66429;SDS011;53242;51.694;10.006;2024-03-25T04:50:46;8.25;;;1.42;;
66429;SDS011;53242;51.694;10.006;2024-03-25T04:53:09;5.05;;;1.80;;
66429;SDS011;53242;51.694;10.006;2024-03-25T04:55:32;11.65;;;1.85;;
66429;SDS011;53242;51.694;10.006;2024-03-25T04:57:54;5.65;;;1.67;;
66429;SDS011;53242;51.694;10.006;2024-03-25T05:00:17;6.30;;;1.90;;
66429;SDS011;53242;51.694;10.006;2024-03-25T05:02:39;7.78;;;1.58;;
66429;SDS011;53242;51.694;10.006;2024-03-25T05:05:02;6.40;;;1.42;;
66429;SDS011;53242;51.694;10.006;2024-03-25T05:07:24;9.40;;;1.73;;
66429;SDS011;53242;51.694;10.006;2024-03-25T05:09:47;6.10;;;1.70;;
66429;SDS011;53242;51.694;10.006;2024-03-25T05:12:09;4.72;;;1.40;;
66429;SDS011;53242;51.694;10.006;2024-03-25T05:14:32;7.82;;;1.90;;
66429;SDS011;53242;51.694;10.006;2024-03-25T05:16:54;5.32;;;1.23;;
66429;SDS011;53242;51.694;10.006;2024-03-25T05:19:16;9.52;;;1.75;;
66429;SDS011;53242;51.694;10.006;2024-03-25T05:21:39;4.63;;;1.40;;
66429;SDS011;53242;51.694;10.006;2024-03-25T05:24:01;6.18;;;1.58;;
66429;SDS011;53242;51.694;10.006;2024-03-25T05:26:24;7.15;;;1.88;;
66429;SDS011;53242;51.694;10.006;2024-03-25T05:28:46;6.55;;;1.20;;
66429;SDS011;53242;51.694;10.006;2024-03-25T05:31:23;6.45;;;1.88;;
66429;SDS011;53242;51.694;10.006;2024-03-25T05:33:45;5.75;;;1.70;;
66429;SDS011;53242;51.694;10.006;2024-03-25T05:36:09;4.18;;;1.60;;
66429;SDS011;53242;51.694;10.006;2024-03-25T05:38:31;9.68;;;1.70;;
66429;SDS011;53242;51.694;10.006;2024-03-25T05:40:54;14.98;;;1.98;;
66429;SDS011;53242;51.694;10.006;2024-03-25T05:43:17;7.97;;;1.70;;
66429;SDS011;53242;51.694;10.006;2024-03-25T05:45:39;3.00;;;1.05;;
66429;SDS011;53242;51.694;10.006;2024-03-25T05:48:02;7.75;;;1.40;;
66429;SDS011;53242;51.694;10.006;2024-03-25T05:50:24;2.10;;;0.65;;
66429;SDS011;53242;51.694;10.006;2024-03-25T05:52:47;6.45;;;1.52;;
66429;SDS011;53242;51.694;10.006;2024-03-25T05:55:09;8.50;;;1.40;;
66429;SDS011;53242;51.694;10.006;2024-03-25T05:57:32;7.07;;;1.35;;
66429;SDS011;53242;51.694;10.006;2024-03-25T05:59:54;11.23;;;1.83;;
66429;SDS011;53242;51.694;10.006;2024-03-25T06:02:17;7.93;;;2.08;;
66429;SDS011;53242;51.694;10.006;2024-03-25T06:04:40;7.20;;;1.55;;
66429;SDS011;53242;51.694;10.006;2024-03-25T06:07:02;5.45;;;1.27;;
66429;SDS011;53242;51.694;10.006;2024-03-25T06:09:25;5.97;;;1.33;;
66429;SDS011;53242;51.694;10.006;2024-03-25T06:11:47;8.90;;;1.83;;
66429;SDS011;53242;51.694;10.006;2024-03-25T06:14:09;6.85;;;1.38;;
66429;SDS011;53242;51.694;10.006;2024-03-25T06:16:32;9.32;;;1.58;;
66429;SDS011;53242;51.694;10.006;2024-03-25T06:18:54;9.95;;;1.50;;
66429;SDS011;53242;51.694;10.006;2024-03-25T06:21:16;4.30;;;1.33;;
66429;SDS011;53242;51.694;10.006;2024-03-25T06:23:39;6.28;;;1.27;;
66429;SDS011;53242;51.694;10.006;2024-03-25T06:26:02;6.15;;;1.38;;
66429;SDS011;53242;51.694;10.006;2024-03-25T06:28:25;4.65;;;1.15;;
66429;SDS011;53242;51.694;10.006;2024-03-25T06:30:47;6.18;;;1.25;;
66429;SDS011;53242;51.694;10.006;2024-03-25T06:33:29;8.68;;;1.90;;
66429;SDS011;53242;51.694;10.006;2024-03-25T06:36:10;8.95;;;2.00;;
66429;SDS011;53242;51.694;10.006;2024-03-25T06:38:32;8.32;;;1.38;;
66429;SDS011;53242;51.694;10.006;2024-03-25T06:40:54;12.23;;;1.60;;
66429;SDS011;53242;51.694;10.006;2024-03-25T06:43:17;7.20;;;1.80;;
66429;SDS011;53242;51.694;10.006;2024-03-25T06:45:40;9.95;;;1.60;;
66429;SDS011;53242;51.694;10.006;2024-03-25T06:48:03;6.88;;;1.63;;
66429;SDS011;53242;51.694;10.006;2024-03-25T06:50:26;5.47;;;1.55;;
66429;SDS011;53242;51.694;10.006;2024-03-25T06:52:49;6.47;;;1.27;;
66429;SDS011;53242;51.694;10.006;2024-03-25T06:55:12;10.35;;;1.55;;
66429;SDS011;53242;51.694;10.006;2024-03-25T06:57:34;4.85;;;1.60;;
66429;SDS011;53242;51.694;10.006;2024-03-25T06:59:56;5.90;;;1.60;;
66429;SDS011;53242;51.694;10.006;2024-03-25T07:02:19;6.88;;;1.35;;
66429;SDS011;53242;51.694;10.006;2024-03-25T07:04:42;6.88;;;1.50;;
66429;SDS011;53242;51.694;10.006;2024-03-25T07:07:04;9.25;;;2.08;;
66429;SDS011;53242;51.694;10.006;2024-03-25T07:09:27;5.07;;;1.60;;
66429;SDS011;53242;51.694;10.006;2024-03-25T07:11:49;10.82;;;2.10;;
66429;SDS011;53242;51.694;10.006;2024-03-25T07:14:12;10.25;;;2.20;;
66429;SDS011;53242;51.694;10.006;2024-03-25T07:16:34;8.10;;;1.83;;
66429;SDS011;53242;51.694;10.006;2024-03-25T07:18:56;10.15;;;2.33;;
66429;SDS011;53242;51.694;10.006;2024-03-25T07:21:19;7.57;;;2.47;;
66429;SDS011;53242;51.694;10.006;2024-03-25T07:23:41;9.00;;;2.13;;
66429;SDS011;53242;51.694;10.006;2024-03-25T07:26:04;8.18;;;2.42;;
66429;SDS011;53242;51.694;10.006;2024-03-25T07:28:26;15.48;;;3.65;;
66429;SDS011;53242;51.694;10.006;2024-03-25T07:30:49;5.00;;;1.33;;
66429;SDS011;53242;51.694;10.006;2024-03-25T07:33:12;10.65;;;2.22;;
66429;SDS011;53242;51.694;10.006;2024-03-25T07:35:34;6.70;;;1.52;;
66429;SDS011;53242;51.694;10.006;2024-03-25T07:37:58;7.97;;;2.65;;
66429;SDS011;53242;51.694;10.006;2024-03-25T07:40:21;5.78;;;1.85;;
66429;SDS011;53242;51.694;10.006;2024-03-25T07:42:44;6.18;;;1.13;;
66429;SDS011;53242;51.694;10.006;2024-03-25T07:45:07;11.05;;;2.03;;
66429;SDS011;53242;51.694;10.006;2024-03-25T07:47:29;8.55;;;2.13;;
66429;SDS011;53242;51.694;10.006;2024-03-25T07:49:53;6.13;;;1.90;;
66429;SDS011;53242;51.694;10.006;2024-03-25T07:52:16;9.40;;;1.90;;
66429;SDS011;53242;51.694;10.006;2024-03-25T07:54:38;6.78;;;1.40;;
66429;SDS011;53242;51.694;10.006;2024-03-25T07:57:00;3.35;;;0.90;;
66429;SDS011;53242;51.694;10.006;2024-03-25T07:59:23;8.98;;;2.10;;
66429;SDS011;53242;51.694;10.006;2024-03-25T08:01:46;10.38;;;1.73;;
66429;SDS011;53242;51.694;10.006;2024-03-25T08:04:08;5.38;;;1.60;;
66429;SDS011;53242;51.694;10.006;2024-03-25T08:06:31;5.35;;;1.98;;
66429;SDS011;53242;51.694;10.006;2024-03-25T08:08:53;10.75;;;2.08;;
66429;SDS011;53242;51.694;10.006;2024-03-25T08:11:15;8.48;;;2.17;;
66429;SDS011;53242;51.694;10.006;2024-03-25T08:13:38;8.95;;;2.45;;
66429;SDS011;53242;51.694;10.006;2024-03-25T08:16:00;8.85;;;2.17;;
66429;SDS011;53242;51.694;10.006;2024-03-25T08:18:22;7.97;;;2.20;;
66429;SDS011;53242;51.694;10.006;2024-03-25T08:20:45;8.90;;;1.70;;
66429;SDS011;53242;51.694;10.006;2024-03-25T08:23:07;6.68;;;1.65;;
66429;SDS011;53242;51.694;10.006;2024-03-25T08:25:30;9.30;;;1.98;;
66429;SDS011;53242;51.694;10.006;2024-03-25T08:27:53;7.05;;;2.10;;
66429;SDS011;53242;51.694;10.006;2024-03-25T08:30:16;8.40;;;2.45;;
66429;SDS011;53242;51.694;10.006;2024-03-25T08:32:38;8.98;;;1.73;;
66429;SDS011;53242;51.694;10.006;2024-03-25T08:35:00;5.72;;;1.48;;
66429;SDS011;53242;51.694;10.006;2024-03-25T08:37:23;7.50;;;1.63;;
66429;SDS011;53242;51.694;10.006;2024-03-25T08:39:46;6.90;;;1.80;;
66429;SDS011;53242;51.694;10.006;2024-03-25T08:42:09;5.32;;;1.60;;
66429;SDS011;53242;51.694;10.006;2024-03-25T08:44:32;8.85;;;1.83;;
66429;SDS011;53242;51.694;10.006;2024-03-25T08:46:54;5.53;;;1.50;;
66429;SDS011;53242;51.694;10.006;2024-03-25T08:49:17;6.03;;;1.80;;
66429;SDS011;53242;51.694;10.006;2024-03-25T08:51:39;7.82;;;1.48;;
66429;SDS011;53242;51.694;10.006;2024-03-25T08:54:02;13.68;;;3.72;;
66429;SDS011;53242;51.694;10.006;2024-03-25T08:56:24;6.03;;;1.70;;
66429;SDS011;53242;51.694;10.006;2024-03-25T08:58:47;5.90;;;1.80;;
66429;SDS011;53242;51.694;10.006;2024-03-25T09:01:09;8.50;;;2.30;;
66429;SDS011;53242;51.694;10.006;2024-03-25T09:03:36;12.90;;;2.83;;
66429;SDS011;53242;51.694;10.006;2024-03-25T09:05:58;10.20;;;2.10;;
66429;SDS011;53242;51.694;10.006;2024-03-25T09:08:21;9.07;;;2.63;;
66429;SDS011;53242;51.694;10.006;2024-03-25T09:10:44;8.95;;;1.90;;
66429;SDS011;53242;51.694;10.006;2024-03-25T09:13:24;5.07;;;1.23;;
66429;SDS011;53242;51.694;10.006;2024-03-25T09:15:47;6.50;;;1.98;;
66429;SDS011;53242;51.694;10.006;2024-03-25T09:18:09;5.95;;;1.38;;
66429;SDS011;53242;51.694;10.006;2024-03-25T09:20:32;5.45;;;1.20;;
66429;SDS011;53242;51.694;10.006;2024-03-25T09:22:54;7.90;;;1.70;;
66429;SDS011;53242;51.694;10.006;2024-03-25T09:25:17;4.90;;;1.05;;
66429;SDS011;53242;51.694;10.006;2024-03-25T09:27:40;3.95;;;1.40;;
66429;SDS011;53242;51.694;10.006;2024-03-25T09:30:03;3.50;;;0.43;;
66429;SDS011;53242;51.694;10.006;2024-03-25T09:32:26;8.30;;;2.10;;
66429;SDS011;53242;51.694;10.006;2024-03-25T09:34:48;7.25;;;1.77;;
66429;SDS011;53242;51.694;10.006;2024-03-25T09:37:12;6.38;;;1.70;;
66429;SDS011;53242;51.694;10.006;2024-03-25T09:39:34;7.97;;;1.80;;
66429;SDS011;53242;51.694;10.006;2024-03-25T09:41:57;7.75;;;1.67;;
66429;SDS011;53242;51.694;10.006;2024-03-25T09:44:24;8.48;;;2.00;;
66429;SDS011;53242;51.694;10.006;2024-03-25T09:46:47;6.55;;;1.80;;
66429;SDS011;53242;51.694;10.006;2024-03-25T09:49:09;5.03;;;1.70;;
66429;SDS011;53242;51.694;10.006;2024-03-25T09:51:31;6.20;;;1.60;;
66429;SDS011;53242;51.694;10.006;2024-03-25T09:53:54;6.90;;;1.25;;
66429;SDS011;53242;51.694;10.006;2024-03-25T09:56:16;4.70;;;1.20;;
66429;SDS011;53242;51.694;10.006;2024-03-25T09:58:39;9.25;;;1.48;;
66429;SDS011;53242;51.694;10.006;2024-03-25T10:01:02;4.50;;;1.60;;
66429;SDS011;53242;51.694;10.006;2024-03-25T10:03:25;7.03;;;1.48;;
66429;SDS011;53242;51.694;10.006;2024-03-25T10:05:47;6.88;;;1.40;;
66429;SDS011;53242;51.694;10.006;2024-03-25T10:08:09;9.02;;;1.65;;
66429;SDS011;53242;51.694;10.006;2024-03-25T10:10:35;7.07;;;1.52;;
66429;SDS011;53242;51.694;10.006;2024-03-25T10:12:59;5.90;;;1.10;;
66429;SDS011;53242;51.694;10.006;2024-03-25T10:15:22;6.40;;;1.27;;
66429;SDS011;53242;51.694;10.006;2024-03-25T10:17:44;7.90;;;1.48;;
66429;SDS011;53242;51.694;10.006;2024-03-25T10:20:07;4.43;;;1.00;;
66429;SDS011;53242;51.694;10.006;2024-03-25T10:22:40;11.05;;;3.03;;
66429;SDS011;53242;51.694;10.006;2024-03-25T10:25:03;7.80;;;1.67;;
66429;SDS011;53242;51.694;10.006;2024-03-25T10:27:26;5.20;;;1.10;;
66429;SDS011;53242;51.694;10.006;2024-03-25T10:29:53;10.73;;;2.00;;
66429;SDS011;53242;51.694;10.006;2024-03-25T10:32:17;8.38;;;2.10;;
66429;SDS011;53242;51.694;10.006;2024-03-25T10:34:40;5.65;;;1.83;;
66429;SDS011;53242;51.694;10.006;2024-03-25T10:37:02;8.40;;;1.52;;
66429;SDS011;53242;51.694;10.006;2024-03-25T10:39:27;6.88;;;1.30;;
66429;SDS011;53242;51.694;10.006;2024-03-25T10:41:56;7.03;;;1.63;;
66429;SDS011;53242;51.694;10.006;2024-03-25T10:44:19;5.00;;;1.33;;
66429;SDS011;53242;51.694;10.006;2024-03-25T10:46:42;7.78;;;1.60;;
66429;SDS011;53242;51.694;10.006;2024-03-25T10:49:13;5.82;;;1.33;;
66429;SDS011;53242;51.694;10.006;2024-03-25T10:51:42;10.63;;;1.63;;
66429;SDS011;53242;51.694;10.006;2024-03-25T10:54:06;2.85;;;1.08;;
66429;SDS011;53242;51.694;10.006;2024-03-25T10:56:29;6.90;;;1.38;;
66429;SDS011;53242;51.694;10.006;2024-03-25T10:58:52;7.03;;;1.17;;
66429;SDS011;53242;51.694;10.006;2024-03-25T11:01:19;4.15;;;0.90;;
66429;SDS011;53242;51.694;10.006;2024-03-25T11:03:42;10.50;;;1.20;;
66429;SDS011;53242;51.694;10.006;2024-03-25T11:06:04;4.57;;;1.33;;
66429;SDS011;53242;51.694;10.006;2024-03-25T11:08:30;5.38;;;1.48;;
66429;SDS011;53242;51.694;10.006;2024-03-25T11:10:54;6.35;;;1.95;;
66429;SDS011;53242;51.694;10.006;2024-03-25T11:13:17;7.28;;;1.48;;
66429;SDS011;53242;51.694;10.006;2024-03-25T11:15:40;4.00;;;1.10;;
66429;SDS011;53242;51.694;10.006;2024-03-25T11:18:10;7.25;;;1.38;;
66429;SDS011;53242;51.694;10.006;2024-03-25T11:20:33;6.05;;;1.17;;
66429;SDS011;53242;51.694;10.006;2024-03-25T11:22:55;6.00;;;1.35;;
66429;SDS011;53242;51.694;10.006;2024-03-25T11:25:19;6.80;;;1.05;;
66429;SDS011;53242;51.694;10.006;2024-03-25T11:27:43;5.15;;;1.10;;
66429;SDS011;53242;51.694;10.006;2024-03-25T11:30:06;4.15;;;1.10;;
66429;SDS011;53242;51.694;10.006;2024-03-25T11:32:29;6.07;;;1.55;;
66429;SDS011;53242;51.694;10.006;2024-03-25T11:34:52;5.43;;;1.70;;
66429;SDS011;53242;51.694;10.006;2024-03-25T11:37:14;5.00;;;1.10;;
66429;SDS011;53242;51.694;10.006;2024-03-25T11:39:36;4.18;;;0.80;;
66429;SDS011;53242;51.694;10.006;2024-03-25T11:41:59;4.30;;;1.00;;
66429;SDS011;53242;51.694;10.006;2024-03-25T11:44:21;4.55;;;1.10;;
66429;SDS011;53242;51.694;10.006;2024-03-25T11:46:47;6.40;;;1.10;;
66429;SDS011;53242;51.694;10.006;2024-03-25T11:49:12;5.97;;;1.20;;
66429;SDS011;53242;51.694;10.006;2024-03-25T11:51:36;3.95;;;1.20;;
66429;SDS011;53242;51.694;10.006;2024-03-25T11:56:26;6.10;;;1.35;;
66429;SDS011;53242;51.694;10.006;2024-03-25T11:58:48;4.88;;;1.30;;
66429;SDS011;53242;51.694;10.006;2024-03-25T12:01:11;5.63;;;1.30;;
66429;SDS011;53242;51.694;10.006;2024-03-25T12:03:33;6.20;;;1.10;;
66429;SDS011;53242;51.694;10.006;2024-03-25T12:05:56;3.60;;;1.67;;
66429;SDS011;53242;51.694;10.006;2024-03-25T12:08:19;9.02;;;1.33;;
66429;SDS011;53242;51.694;10.006;2024-03-25T12:10:41;8.73;;;1.27;;
66429;SDS011;53242;51.694;10.006;2024-03-25T12:13:23;5.93;;;1.30;;
66429;SDS011;53242;51.694;10.006;2024-03-25T12:15:47;6.13;;;1.02;;
66429;SDS011;53242;51.694;10.006;2024-03-25T12:18:10;7.15;;;1.40;;
66429;SDS011;53242;51.694;10.006;2024-03-25T12:20:36;4.70;;;1.60;;
66429;SDS011;53242;51.694;10.006;2024-03-25T12:22:58;7.65;;;1.70;;
66429;SDS011;53242;51.694;10.006;2024-03-25T12:25:23;5.65;;;1.70;;
66429;SDS011;53242;51.694;10.006;2024-03-25T12:27:46;6.68;;;1.30;;
66429;SDS011;53242;51.694;10.006;2024-03-25T12:30:10;6.28;;;1.30;;
66429;SDS011;53242;51.694;10.006;2024-03-25T12:32:43;8.13;;;1.48;;
66429;SDS011;53242;51.694;10.006;2024-03-25T12:35:10;6.75;;;1.73;;
66429;SDS011;53242;51.694;10.006;2024-03-25T12:37:33;6.22;;;1.92;;
66429;SDS011;53242;51.694;10.006;2024-03-25T12:39:56;6.70;;;2.03;;
66429;SDS011;53242;51.694;10.006;2024-03-25T12:42:20;6.82;;;1.45;;
66429;SDS011;53242;51.694;10.006;2024-03-25T12:44:43;4.22;;;1.50;;
66429;SDS011;53242;51.694;10.006;2024-03-25T12:47:05;12.30;;;2.75;;
66429;SDS011;53242;51.694;10.006;2024-03-25T12:49:28;7.15;;;2.50;;
66429;SDS011;53242;51.694;10.006;2024-03-25T12:51:50;10.98;;;2.85;;
66429;SDS011;53242;51.694;10.006;2024-03-25T12:54:12;11.32;;;2.15;;
66429;SDS011;53242;51.694;10.006;2024-03-25T12:56:35;7.93;;;1.75;;
66429;SDS011;53242;51.694;10.006;2024-03-25T12:58:57;7.57;;;1.50;;
66429;SDS011;53242;51.694;10.006;2024-03-25T13:01:19;3.05;;;1.23;;
66429;SDS011;53242;51.694;10.006;2024-03-25T13:03:42;9.98;;;1.90;;
66429;SDS011;53242;51.694;10.006;2024-03-25T13:06:04;6.65;;;1.73;;
66429;SDS011;53242;51.694;10.006;2024-03-25T13:08:27;7.28;;;1.88;;
66429;SDS011;53242;51.694;10.006;2024-03-25T13:10:49;4.15;;;1.15;;
66429;SDS011;53242;51.694;10.006;2024-03-25T13:13:12;9.10;;;1.73;;
66429;SDS011;53242;51.694;10.006;2024-03-25T13:15:35;6.13;;;1.58;;
66429;SDS011;53242;51.694;10.006;2024-03-25T13:17:57;4.55;;;1.52;;
66429;SDS011;53242;51.694;10.006;2024-03-25T13:20:19;8.45;;;1.50;;
66429;SDS011;53242;51.694;10.006;2024-03-25T13:22:42;6.53;;;1.77;;
66429;SDS011;53242;51.694;10.006;2024-03-25T13:25:06;5.20;;;1.65;;
66429;SDS011;53242;51.694;10.006;2024-03-25T13:27:29;3.85;;;1.42;;
66429;SDS011;53242;51.694;10.006;2024-03-25T13:29:51;7.45;;;1.52;;
66429;SDS011;53242;51.694;10.006;2024-03-25T13:32:14;6.43;;;1.75;;
66429;SDS011;53242;51.694;10.006;2024-03-25T13:34:37;4.72;;;1.67;;
66429;SDS011;53242;51.694;10.006;2024-03-25T13:36:59;6.35;;;1.70;;
66429;SDS011;53242;51.694;10.006;2024-03-25T13:39:21;6.05;;;1.70;;
66429;SDS011;53242;51.694;10.006;2024-03-25T13:41:44;5.22;;;1.60;;
66429;SDS011;53242;51.694;10.006;2024-03-25T13:44:07;5.35;;;1.60;;
66429;SDS011;53242;51.694;10.006;2024-03-25T13:46:30;5.18;;;1.50;;
66429;SDS011;53242;51.694;10.006;2024-03-25T13:48:52;5.45;;;1.40;;
66429;SDS011;53242;51.694;10.006;2024-03-25T13:51:15;5.20;;;1.38;;
66429;SDS011;53242;51.694;10.006;2024-03-25T13:53:37;8.57;;;2.08;;
66429;SDS011;53242;51.694;10.006;2024-03-25T13:56:00;24.83;;;6.90;;
66429;SDS011;53242;51.694;10.006;2024-03-25T13:58:22;16.02;;;4.57;;
66429;SDS011;53242;51.694;10.006;2024-03-25T14:00:45;5.55;;;1.80;;
66429;SDS011;53242;51.694;10.006;2024-03-25T14:03:07;6.00;;;1.85;;
66429;SDS011;53242;51.694;10.006;2024-03-25T14:05:29;8.38;;;1.60;;
66429;SDS011;53242;51.694;10.006;2024-03-25T14:07:52;5.65;;;1.25;;
66429;SDS011;53242;51.694;10.006;2024-03-25T14:10:14;2.70;;;1.15;;